createdAt,value
2023-05-12T00:01:52.953Z,91.36
2023-05-12T00:04:27.576Z,91.77
2023-05-12T00:07:04.126Z,91.72
2023-05-12T00:09:38.721Z,92.94
2023-05-12T00:12:13.519Z,92.51
2023-05-12T00:14:48.045Z,92.73
2023-05-12T00:17:22.451Z,92.56
2023-05-12T00:19:57.396Z,92.99
2023-05-12T00:22:33.098Z,92.51
2023-05-12T00:25:08.048Z,92.47
2023-05-12T00:27:42.384Z,92.66
2023-05-12T00:30:17.452Z,92.58
2023-05-12T00:32:51.928Z,92.61
2023-05-12T00:35:26.595Z,92.70
2023-05-12T00:38:02.260Z,92.96
2023-05-12T00:40:36.970Z,93.61
2023-05-12T00:43:11.704Z,93.77
2023-05-12T00:45:46.405Z,93.82
2023-05-12T00:48:21.468Z,93.46
2023-05-12T00:50:56.847Z,94.46
2023-05-12T00:53:45.039Z,94.17
2023-05-12T00:56:23.741Z,94.10
2023-05-12T00:58:58.168Z,94.39
2023-05-12T01:01:33.576Z,94.59
2023-05-12T01:04:08.298Z,94.43
2023-05-12T01:06:49.732Z,94.84
2023-05-12T01:09:25.957Z,94.97
2023-05-12T01:12:01.046Z,94.97
2023-05-12T01:14:36.696Z,95.30
2023-05-12T01:17:14.112Z,95.22
2023-05-12T01:19:50.884Z,95.26
2023-05-12T01:22:27.355Z,95.34
2023-05-12T01:25:05.031Z,95.37
2023-05-12T01:27:41.855Z,95.56
2023-05-12T01:30:19.349Z,94.95
2023-05-12T01:32:54.790Z,95.28
2023-05-12T01:35:29.507Z,95.82
2023-05-12T01:38:04.476Z,95.18
2023-05-12T01:40:39.071Z,95.86
2023-05-12T01:43:15.403Z,95.67
2023-05-12T01:45:49.791Z,95.48
2023-05-12T01:48:24.374Z,95.51
2023-05-12T01:51:01.183Z,95.88
2023-05-12T01:53:36.338Z,95.81
2023-05-12T01:56:10.846Z,95.63
2023-05-12T01:58:47.579Z,95.63
2023-05-12T02:01:23.461Z,95.68
2023-05-12T02:03:58.196Z,95.67
2023-05-12T02:06:32.818Z,95.51
2023-05-12T02:09:07.517Z,95.63
2023-05-12T02:11:41.989Z,95.77
2023-05-12T02:14:18.067Z,95.87
2023-05-12T02:16:53.034Z,95.63
2023-05-12T02:19:27.842Z,96.07
2023-05-12T02:22:03.101Z,95.55
2023-05-12T02:24:37.827Z,96.09
2023-05-12T02:27:12.567Z,95.32
2023-05-12T02:29:48.648Z,95.79
2023-05-12T02:32:23.499Z,95.68
2023-05-12T02:34:58.274Z,95.68
2023-05-12T02:37:32.738Z,96.14
2023-05-12T02:40:09.654Z,96.55
2023-05-12T02:42:45.624Z,96.54
2023-05-12T02:45:21.668Z,96.77
2023-05-12T02:47:56.054Z,96.59
2023-05-12T02:50:30.758Z,96.46
2023-05-12T02:53:05.117Z,96.71
2023-05-12T02:55:40.236Z,96.90
2023-05-12T02:58:14.637Z,97.01
2023-05-12T03:00:59.796Z,96.73
2023-05-12T03:03:38.014Z,97.17
2023-05-12T03:06:13.143Z,97.31
2023-05-12T03:08:48.224Z,97.28
2023-05-12T03:11:22.946Z,97.31
2023-05-12T03:13:57.253Z,97.83
2023-05-12T03:16:33.303Z,97.68
2023-05-12T03:19:07.811Z,97.65
2023-05-12T03:21:42.857Z,97.83
2023-05-12T03:24:17.264Z,98.16
2023-05-12T03:26:51.950Z,97.81
2023-05-12T03:29:26.717Z,97.36
2023-05-12T03:32:02.752Z,96.90
2023-05-12T03:34:37.317Z,97.15
2023-05-12T03:37:12.061Z,98.17
2023-05-12T03:39:46.639Z,97.83
2023-05-12T03:42:21.263Z,97.77
2023-05-12T03:44:55.703Z,98.01
2023-05-12T03:47:31.825Z,97.97
2023-05-12T03:50:07.676Z,98.00
2023-05-12T03:52:42.354Z,98.31
2023-05-12T03:55:16.896Z,98.40
2023-05-12T03:57:51.564Z,98.62
2023-05-12T04:00:25.891Z,98.21
2023-05-12T04:03:02.106Z,98.26
2023-05-12T04:05:39.712Z,98.19
2023-05-12T04:08:14.380Z,98.20
2023-05-12T04:10:48.778Z,98.24
2023-05-12T04:13:23.904Z,98.26
2023-05-12T04:15:59.369Z,98.20
2023-05-12T04:18:35.956Z,98.14
2023-05-12T04:21:10.263Z,97.99
2023-05-12T04:23:44.987Z,98.08
2023-05-12T04:26:19.347Z,98.14
2023-05-12T04:28:54.019Z,97.69
2023-05-12T04:31:28.323Z,97.99
2023-05-12T04:34:04.884Z,98.58
2023-05-12T04:36:40.214Z,98.56
2023-05-12T04:39:15.008Z,98.35
2023-05-12T04:41:49.516Z,99.59
2023-05-12T04:44:24.820Z,95.77
2023-05-12T04:46:59.392Z,96.18
2023-05-12T04:49:35.350Z,97.09
2023-05-12T04:52:09.637Z,97.45
2023-05-12T04:54:44.386Z,98.09
2023-05-12T04:57:18.877Z,98.36
2023-05-12T04:59:53.584Z,98.51
2023-05-12T05:02:29.029Z,98.27
2023-05-12T05:05:05.873Z,98.50
2023-05-12T05:07:40.200Z,97.94
2023-05-12T05:10:15.162Z,98.38
2023-05-12T05:12:49.919Z,98.20
2023-05-12T05:15:24.889Z,98.31
2023-05-12T05:18:01.631Z,98.90
2023-05-12T05:20:40.957Z,98.32
2023-05-12T05:23:18.613Z,98.51
2023-05-12T05:25:53.353Z,98.44
2023-05-12T05:28:27.651Z,98.37
2023-05-12T05:31:02.432Z,97.96
2023-05-12T05:33:36.833Z,98.23
2023-05-12T05:36:13.407Z,98.34
2023-05-12T05:38:47.862Z,97.84
2023-05-12T05:41:23.092Z,97.55
2023-05-12T05:43:57.619Z,97.60
2023-05-12T05:46:32.284Z,97.98
2023-05-12T05:49:06.709Z,97.17
2023-05-12T05:51:42.800Z,98.10
2023-05-12T05:54:17.171Z,96.84
2023-05-12T05:56:52.414Z,96.35
2023-05-12T05:59:26.948Z,92.54
2023-05-12T06:03:37.940Z,94.23
2023-05-12T06:06:13.276Z,94.23
2023-05-12T06:08:47.622Z,96.02
2023-05-12T06:11:22.392Z,96.57
2023-05-12T06:13:56.740Z,96.62
2023-05-12T06:16:33.962Z,96.87
2023-05-12T06:19:09.919Z,96.65
2023-05-12T06:21:44.842Z,97.12
2023-05-12T06:24:20.097Z,97.42
2023-05-12T06:26:54.723Z,98.20
2023-05-12T06:29:30.931Z,97.95
2023-05-12T06:32:06.091Z,97.89
2023-05-12T06:34:41.935Z,97.38
2023-05-12T06:37:16.645Z,97.66
2023-05-12T06:39:51.036Z,97.90
2023-05-12T06:42:25.652Z,98.42
2023-05-12T06:45:00.819Z,98.53
2023-05-12T06:47:35.556Z,98.64
2023-05-12T06:50:12.078Z,98.75
2023-05-12T06:52:46.989Z,98.10
2023-05-12T06:55:23.442Z,98.51
2023-05-12T06:57:58.261Z,97.73
2023-05-12T07:00:32.684Z,95.30
2023-05-12T07:03:10.536Z,94.39
2023-05-12T07:05:46.471Z,95.92
2023-05-12T07:08:21.154Z,96.76
2023-05-12T07:10:55.570Z,97.47
2023-05-12T07:13:30.252Z,97.75
2023-05-12T07:16:04.571Z,98.08
2023-05-12T07:18:39.198Z,97.87
2023-05-12T07:21:15.766Z,98.14
2023-05-12T07:23:50.411Z,97.89
2023-05-12T07:26:25.232Z,98.64
2023-05-12T07:29:00.974Z,97.88
2023-05-12T07:31:36.078Z,97.55
2023-05-12T07:34:10.982Z,96.09
2023-05-12T07:36:47.019Z,96.81
2023-05-12T07:39:23.911Z,97.31
2023-05-12T07:41:58.466Z,97.81
2023-05-12T07:44:33.650Z,96.87
2023-05-12T07:47:08.152Z,94.72
2023-05-12T07:49:42.844Z,95.89
2023-05-12T07:52:18.496Z,96.80
2023-05-12T07:54:53.191Z,97.62
2023-05-12T07:57:27.410Z,97.93
2023-05-12T08:00:02.027Z,98.67
2023-05-12T08:02:38.181Z,98.35
2023-05-12T08:05:13.268Z,98.50
2023-05-12T08:07:48.990Z,98.63
2023-05-12T08:10:26.870Z,99.01
2023-05-12T08:13:01.435Z,99.15
2023-05-12T08:15:36.215Z,98.96
2023-05-12T08:18:10.863Z,97.97
2023-05-12T08:20:45.657Z,98.71
2023-05-12T08:23:21.363Z,98.62
2023-05-12T08:25:55.945Z,98.45
2023-05-12T08:28:30.573Z,97.80
2023-05-12T08:31:05.385Z,97.61
2023-05-12T08:33:39.786Z,97.72
2023-05-12T08:36:14.457Z,98.32
2023-05-12T08:38:50.157Z,98.38
2023-05-12T08:41:32.910Z,98.19
2023-05-12T08:44:07.656Z,98.00
2023-05-12T08:46:43.401Z,98.91
2023-05-12T08:49:22.186Z,99.40
2023-05-12T08:52:01.099Z,98.76
2023-05-12T08:54:48.511Z,97.43
2023-05-12T08:57:29.448Z,97.31
2023-05-12T09:00:05.460Z,97.00
2023-05-12T09:02:52.076Z,96.88
2023-05-12T09:05:30.931Z,97.66
2023-05-12T09:08:06.803Z,96.51
2023-05-12T09:10:42.744Z,96.11
2023-05-12T09:13:21.827Z,96.64
2023-05-12T09:15:59.206Z,99.15
2023-05-12T09:18:48.385Z,95.46
2023-05-12T09:21:23.317Z,93.05
2023-05-12T09:23:59.542Z,94.13
2023-05-12T09:26:49.278Z,95.24
2023-05-12T09:29:31.889Z,96.10
2023-05-12T09:32:07.181Z,96.13
2023-05-12T09:34:42.195Z,95.94
2023-05-12T09:37:16.542Z,97.13
2023-05-12T09:40:01.037Z,96.90
2023-05-12T09:42:37.461Z,97.15
2023-05-12T09:45:12.612Z,96.47
2023-05-12T09:47:46.903Z,96.64
2023-05-12T09:50:22.954Z,96.46
2023-05-12T09:53:00.177Z,97.23
2023-05-12T09:55:34.819Z,97.26
2023-05-12T09:58:11.758Z,97.94
2023-05-12T10:03:27.755Z,97.15
2023-05-12T10:06:07.543Z,96.97
2023-05-12T10:08:48.373Z,96.39
2023-05-12T10:11:24.338Z,95.89
2023-05-12T10:14:01.031Z,96.23
2023-05-12T10:16:35.682Z,96.42
2023-05-12T10:19:11.595Z,96.88
2023-05-12T10:21:46.424Z,97.02
2023-05-12T10:24:26.532Z,96.58
2023-05-12T10:27:03.322Z,96.19
2023-05-12T10:29:41.221Z,96.08
2023-05-12T10:32:16.823Z,96.33
2023-05-12T10:34:52.194Z,95.67
2023-05-12T10:37:26.654Z,95.67
2023-05-12T10:40:03.450Z,95.81
2023-05-12T10:42:42.627Z,95.45
2023-05-12T10:45:20.319Z,95.42
2023-05-12T10:48:08.450Z,94.12
2023-05-12T10:50:54.896Z,94.91
2023-05-12T10:53:41.348Z,94.88
2023-05-12T10:56:24.909Z,94.31
2023-05-12T10:59:17.837Z,93.31
2023-05-12T11:02:04.948Z,91.63
2023-05-12T11:04:43.414Z,90.60
2023-05-12T11:07:22.852Z,90.22
2023-05-12T11:10:01.482Z,95.32
2023-05-12T11:12:37.497Z,91.00
2023-05-12T11:15:14.309Z,85.19
2023-05-12T11:17:50.709Z,84.94
2023-05-12T11:20:26.204Z,86.44
2023-05-12T11:23:02.192Z,86.73
2023-05-12T11:25:37.441Z,88.13
2023-05-12T11:28:13.048Z,88.26
2023-05-12T11:30:54.528Z,89.51
2023-05-12T11:33:31.241Z,88.96
2023-05-12T11:36:06.436Z,89.30
2023-05-12T11:38:41.197Z,91.15
2023-05-12T11:41:15.654Z,90.79
2023-05-12T11:43:50.286Z,87.82
2023-05-12T11:46:28.206Z,90.08
2023-05-12T11:49:04.371Z,91.21
2023-05-12T11:51:43.433Z,92.82
2023-05-12T11:54:18.241Z,92.85
2023-05-12T11:56:53.956Z,93.30
2023-05-12T11:59:30.996Z,93.76
2023-05-12T12:02:05.615Z,93.31
2023-05-12T12:04:43.144Z,93.66
2023-05-12T12:07:17.698Z,93.01
2023-05-12T12:09:52.470Z,94.09
2023-05-12T12:12:26.927Z,94.32
2023-05-12T12:15:02.373Z,94.39
2023-05-12T12:17:36.842Z,94.70
2023-05-12T12:20:13.369Z,95.52
2023-05-12T12:22:47.736Z,95.16
2023-05-12T12:25:22.807Z,94.86
2023-05-12T12:27:57.484Z,95.16
2023-05-12T12:30:32.371Z,94.20
2023-05-12T12:33:06.813Z,94.07
2023-05-12T12:35:42.885Z,93.50
2023-05-12T12:38:17.286Z,94.08
2023-05-12T12:40:52.091Z,92.96
2023-05-12T12:43:26.507Z,93.49
2023-05-12T12:46:01.333Z,93.49
2023-05-12T12:48:35.766Z,93.58
2023-05-12T12:51:12.161Z,93.17
2023-05-12T12:53:46.887Z,92.32
2023-05-12T12:56:23.743Z,92.31
2023-05-12T12:58:59.421Z,91.54
2023-05-12T13:01:35.292Z,94.90
2023-05-12T13:04:09.869Z,90.64
2023-05-12T13:06:46.256Z,91.47
2023-05-12T13:09:20.737Z,92.06
2023-05-12T13:11:55.503Z,92.52
2023-05-12T13:14:30.254Z,92.69
2023-05-12T13:17:05.497Z,93.80
2023-05-12T13:19:40.022Z,94.15
2023-05-12T13:22:16.125Z,94.40
2023-05-12T13:24:50.536Z,94.82
2023-05-12T13:27:25.455Z,94.54
2023-05-12T13:29:59.840Z,94.76
2023-05-12T13:32:34.993Z,94.94
2023-05-12T14:03:10.560Z,95.37
2023-05-12T14:05:45.835Z,95.37
2023-05-12T14:08:20.115Z,96.90
2023-05-12T14:10:54.779Z,97.21
2023-05-12T14:13:29.215Z,97.73
2023-05-12T14:16:04.111Z,97.20
2023-05-12T14:18:41.899Z,97.22
2023-05-12T14:21:17.941Z,97.34
2023-05-12T14:23:52.348Z,97.16
2023-05-12T14:26:27.077Z,97.11
2023-05-12T14:29:01.691Z,100.00
2023-05-12T14:31:36.568Z,96.41
2023-05-12T14:34:13.922Z,92.77
2023-05-12T14:36:48.577Z,93.96
2023-05-12T14:39:22.874Z,94.54
2023-05-12T14:41:57.477Z,95.06
2023-05-12T14:44:32.382Z,95.27
2023-05-12T14:47:09.244Z,95.57
2023-05-12T14:49:45.744Z,95.12
2023-05-12T14:52:20.486Z,94.89
2023-05-12T14:54:55.422Z,94.59
2023-05-12T14:57:30.456Z,95.56
2023-05-12T15:00:05.347Z,96.15
2023-05-12T15:02:40.219Z,95.95
2023-05-12T15:05:16.539Z,96.18
2023-05-12T15:07:51.240Z,95.58
2023-05-12T15:10:26.196Z,96.12
2023-05-12T15:13:00.952Z,96.31
2023-05-12T15:15:35.652Z,95.45
2023-05-12T15:18:10.340Z,95.27
2023-05-12T15:20:46.460Z,95.79
2023-05-12T15:23:21.056Z,96.07
2023-05-12T15:25:55.751Z,95.51
2023-05-12T15:28:30.993Z,95.40
2023-05-12T15:31:05.455Z,95.22
2023-05-12T15:33:40.221Z,95.52
2023-05-12T15:36:16.110Z,95.78
2023-05-12T15:38:50.760Z,95.24
2023-05-12T15:41:25.162Z,95.28
2023-05-12T15:44:00.037Z,95.70
2023-05-12T15:46:35.829Z,95.40
2023-05-12T15:49:11.149Z,95.90
2023-05-12T15:51:46.879Z,95.30
2023-05-12T15:54:21.714Z,94.14
2023-05-12T15:56:56.128Z,94.05
2023-05-12T15:59:30.736Z,93.62
2023-05-12T16:02:05.133Z,93.44
2023-05-12T16:04:39.886Z,100.00
2023-05-12T16:07:15.603Z,91.46
2023-05-12T16:09:50.318Z,87.85
2023-05-12T16:12:24.726Z,88.08
2023-05-12T16:14:59.589Z,89.46
2023-05-12T16:17:34.078Z,89.48
2023-05-12T16:20:10.514Z,90.39
2023-05-12T16:22:46.388Z,91.88
2023-05-12T16:25:21.641Z,93.12
2023-05-12T16:27:56.241Z,92.63
2023-05-12T16:30:30.904Z,92.25
2023-05-12T16:33:07.201Z,92.74
2023-05-12T16:35:41.840Z,92.55
2023-05-12T16:38:17.671Z,92.12
2023-05-12T16:40:52.406Z,92.54
2023-05-12T16:43:26.778Z,92.98
2023-05-12T16:46:02.284Z,92.50
2023-05-12T16:48:36.941Z,91.80
2023-05-12T16:51:11.636Z,92.12
2023-05-12T16:53:47.528Z,91.56
2023-05-12T16:56:22.167Z,91.62
2023-05-12T16:58:56.483Z,92.48
2023-05-12T17:01:31.868Z,92.36
2023-05-12T17:04:06.877Z,92.36
2023-05-12T17:06:41.953Z,92.85
2023-05-12T17:09:18.148Z,92.02
2023-05-12T17:11:52.820Z,91.71
2023-05-12T17:14:27.144Z,91.81
2023-05-12T17:17:01.834Z,92.26
2023-05-12T17:19:41.922Z,92.04
2023-05-12T17:22:16.818Z,100.00
2023-05-12T17:24:52.652Z,96.16
2023-05-12T17:27:27.937Z,87.65
2023-05-12T17:30:04.378Z,88.59
2023-05-12T17:32:39.090Z,89.40
2023-05-12T17:35:13.749Z,90.02
2023-05-12T17:37:49.018Z,90.59
2023-05-12T17:40:24.853Z,90.74
2023-05-12T17:42:59.482Z,90.81
2023-05-12T17:45:33.810Z,91.32
2023-05-12T17:48:08.440Z,91.45
2023-05-12T17:50:42.785Z,91.03
2023-05-12T17:53:17.441Z,91.06
2023-05-12T17:55:53.232Z,91.61
2023-05-12T17:58:27.990Z,91.98
2023-05-12T18:01:02.629Z,91.97
2023-05-12T18:03:38.088Z,91.43
2023-05-12T18:06:12.963Z,92.18
2023-05-12T18:08:47.799Z,92.33
2023-05-12T18:11:23.693Z,92.50
2023-05-12T18:13:58.760Z,92.92
2023-05-12T18:16:33.364Z,93.26
2023-05-12T18:19:08.045Z,93.26
2023-05-12T18:21:42.373Z,93.39
2023-05-12T18:24:16.988Z,93.97
2023-05-12T18:26:52.786Z,94.55
2023-05-12T18:29:27.793Z,94.53
2023-05-12T18:32:02.122Z,94.46
2023-05-12T18:34:37.227Z,94.91
2023-05-12T18:37:15.610Z,94.56
2023-05-12T18:39:50.436Z,94.71
2023-05-12T18:42:26.560Z,95.05
2023-05-12T18:45:01.485Z,94.99
2023-05-12T18:47:35.852Z,94.67
2023-05-12T18:50:11.492Z,94.60
2023-05-12T18:52:45.895Z,94.69
2023-05-12T18:55:20.712Z,94.60
2023-05-12T18:57:56.645Z,94.62
2023-05-12T19:00:33.791Z,94.82
2023-05-12T19:03:08.182Z,94.96
2023-05-12T19:05:44.724Z,95.37
2023-05-12T19:08:20.142Z,95.71
2023-05-12T19:10:54.842Z,95.36
2023-05-12T19:13:30.889Z,95.49
2023-05-12T19:16:06.213Z,95.45
2023-05-12T19:18:41.016Z,95.73
2023-05-12T19:21:15.698Z,95.78
2023-05-12T19:23:50.107Z,96.22
2023-05-12T19:26:24.717Z,96.13
2023-05-12T19:29:02.184Z,96.18
2023-05-12T19:31:37.397Z,96.03
2023-05-12T19:34:11.895Z,95.81
2023-05-12T19:36:46.745Z,95.83
2023-05-12T19:39:21.172Z,96.12
2023-05-12T19:41:56.033Z,96.14
2023-05-12T19:44:31.823Z,95.62
2023-05-12T19:47:08.744Z,95.14
2023-05-12T19:49:43.099Z,95.09
2023-05-12T19:52:17.926Z,94.48
2023-05-12T19:54:52.468Z,94.26
2023-05-12T19:57:27.162Z,100.00
2023-05-12T20:00:02.987Z,97.83
2023-05-12T20:02:46.630Z,86.50
2023-05-12T20:05:21.644Z,88.41
2023-05-12T20:07:57.145Z,88.82
2023-05-12T20:10:31.951Z,89.96
2023-05-12T20:13:06.563Z,89.98
2023-05-12T20:15:44.154Z,90.63
2023-05-12T20:18:18.537Z,91.00
2023-05-12T20:20:53.251Z,91.30
2023-05-12T20:23:27.578Z,91.53
2023-05-12T20:26:02.361Z,91.47
2023-05-12T20:28:36.601Z,91.25
2023-05-12T20:31:12.636Z,91.22
2023-05-12T20:33:46.932Z,91.16
2023-05-12T20:36:21.560Z,91.16
2023-05-12T20:38:56.023Z,91.31
2023-05-12T20:41:31.331Z,91.20
2023-05-12T20:44:05.755Z,91.63
2023-05-12T20:46:41.901Z,91.71
2023-05-12T20:49:16.295Z,91.19
2023-05-12T20:51:50.975Z,91.53
2023-05-12T20:54:25.338Z,91.44
2023-05-12T20:56:59.982Z,91.05
2023-05-12T20:59:34.275Z,91.19
2023-05-12T21:02:10.894Z,91.61
2023-05-12T21:04:45.298Z,91.53
2023-05-12T21:07:20.451Z,91.76
2023-05-12T21:09:54.664Z,92.01
2023-05-12T21:12:29.288Z,92.31
2023-05-12T21:15:04.299Z,92.12
2023-05-12T21:17:40.574Z,92.11
2023-05-12T21:20:14.878Z,92.79
2023-05-12T21:22:49.575Z,98.18
2023-05-12T21:25:24.051Z,92.30
2023-05-12T21:27:58.734Z,87.55
2023-05-12T21:30:33.186Z,89.02
2023-05-12T21:33:09.760Z,89.93
2023-05-12T21:35:44.110Z,90.47
2023-05-12T21:38:19.526Z,95.19
2023-05-12T21:40:55.091Z,88.96
2023-05-12T21:45:21.589Z,89.15
2023-05-12T21:47:56.604Z,89.15
2023-05-12T21:50:30.978Z,91.86
2023-05-12T21:53:05.674Z,92.51
2023-05-12T21:55:41.761Z,93.05
2023-05-12T21:58:16.388Z,93.25
2023-05-12T22:03:00.201Z,92.01
2023-05-12T22:05:35.542Z,92.01
2023-05-12T22:08:09.865Z,93.88
2023-05-12T22:10:44.760Z,94.42
2023-05-12T22:13:19.276Z,94.21
2023-05-12T22:15:54.638Z,94.15
2023-05-12T22:18:30.684Z,94.41
2023-05-12T22:21:08.439Z,94.45
2023-05-12T22:23:43.137Z,94.41
2023-05-12T22:26:17.764Z,94.53
2023-05-12T22:28:52.202Z,94.61
2023-05-12T22:31:29.759Z,94.60
2023-05-12T22:34:05.460Z,94.60
2023-05-12T22:36:40.089Z,94.73
2023-05-12T22:39:14.844Z,94.58
2023-05-12T22:41:52.342Z,94.72
2023-05-12T22:44:26.743Z,94.60
2023-05-12T22:47:01.438Z,94.75
2023-05-12T22:49:37.255Z,94.73
2023-05-12T22:52:12.048Z,94.95
2023-05-12T22:54:46.370Z,94.82
2023-05-12T22:57:21.047Z,94.32
2023-05-12T22:59:56.097Z,94.57
2023-05-12T23:02:30.789Z,94.38
2023-05-12T23:05:07.482Z,94.56
2023-05-12T23:07:42.139Z,94.99
2023-05-12T23:10:16.427Z,94.57
2023-05-12T23:12:51.105Z,94.78
2023-05-12T23:15:25.836Z,94.39
2023-05-12T23:18:00.501Z,94.12
2023-05-12T23:20:36.209Z,94.19
2023-05-12T23:23:11.204Z,93.85
2023-05-12T23:25:45.487Z,93.71
2023-05-12T23:28:20.098Z,93.46
2023-05-12T23:30:54.429Z,93.73
2023-05-12T23:33:29.445Z,93.77
2023-05-12T23:36:06.532Z,93.77
2023-05-12T23:38:41.227Z,94.14
2023-05-12T23:41:15.816Z,94.13
2023-05-12T23:43:50.416Z,94.45
2023-05-12T23:46:24.727Z,94.56
2023-05-12T23:48:59.438Z,94.37
2023-05-12T23:51:35.861Z,94.58
2023-05-12T23:54:10.667Z,94.49
2023-05-12T23:56:45.212Z,94.45
2023-05-12T23:59:19.850Z,94.63
